createdAt,value
2022-12-23T00:00:40.293Z,212.60
2022-12-23T00:01:40.383Z,656.00
2022-12-23T00:02:40.500Z,392.20
2022-12-23T00:03:40.480Z,397.90
2022-12-23T00:04:40.289Z,1444.10
2022-12-23T00:05:40.261Z,1259.10
2022-12-23T00:06:40.231Z,613.20
2022-12-23T00:07:40.206Z,783.30
2022-12-23T00:08:40.229Z,339.40
2022-12-23T00:09:40.211Z,963.20
2022-12-23T00:10:40.240Z,1021.30
2022-12-23T00:11:40.171Z,1209.70
2022-12-23T00:12:40.191Z,621.90
2022-12-23T00:13:40.146Z,430.10
2022-12-23T00:14:40.123Z,293.90
2022-12-23T00:15:40.161Z,305.10
2022-12-23T00:16:40.134Z,317.00
2022-12-23T00:17:40.108Z,350.80
2022-12-23T00:18:40.093Z,447.20
2022-12-23T00:19:40.084Z,498.10
2022-12-23T00:20:40.112Z,402.70
2022-12-23T00:21:40.055Z,251.90
2022-12-23T00:22:40.055Z,409.00
2022-12-23T00:23:40.040Z,534.30
2022-12-23T00:24:40.027Z,605.60
2022-12-23T00:25:40.069Z,387.60
2022-12-23T00:26:40.005Z,252.20
2022-12-23T00:27:40.000Z,325.00
2022-12-23T00:28:39.963Z,255.80
2022-12-23T00:29:39.957Z,401.70
2022-12-23T00:30:39.995Z,366.90
2022-12-23T00:31:39.993Z,365.80
2022-12-23T00:32:39.939Z,372.80
2022-12-23T00:33:39.927Z,350.40
2022-12-23T00:34:39.911Z,327.80
2022-12-23T00:35:39.984Z,367.60
2022-12-23T00:36:40.067Z,377.70
2022-12-23T00:37:39.892Z,358.40
2022-12-23T00:38:39.862Z,338.10
2022-12-23T00:39:39.859Z,285.40
2022-12-23T00:40:39.891Z,310.50
2022-12-23T00:41:39.849Z,313.20
2022-12-23T00:42:39.818Z,238.30
2022-12-23T00:43:39.803Z,277.50
2022-12-23T00:44:39.795Z,259.70
2022-12-23T00:45:39.893Z,228.60
2022-12-23T00:46:39.766Z,211.70
2022-12-23T00:47:39.760Z,261.10
2022-12-23T00:48:39.768Z,288.10
2022-12-23T00:49:39.743Z,280.00
2022-12-23T00:50:39.768Z,163.70
2022-12-23T00:51:39.719Z,184.20
2022-12-23T00:52:39.709Z,202.80
2022-12-23T00:53:39.705Z,233.60
2022-12-23T00:54:39.682Z,347.50
2022-12-23T00:55:39.745Z,175.80
2022-12-23T00:56:39.650Z,105.70
2022-12-23T00:57:39.634Z,239.60
2022-12-23T00:58:39.628Z,242.40
2022-12-23T00:59:39.621Z,257.30
2022-12-23T01:00:39.660Z,190.40
2022-12-23T01:01:39.744Z,102.10
2022-12-23T01:02:39.705Z,184.00
2022-12-23T01:03:39.684Z,313.10
2022-12-23T01:04:39.563Z,201.70
2022-12-23T01:05:39.633Z,139.50
2022-12-23T01:06:39.536Z,292.30
2022-12-23T01:07:39.533Z,231.30
2022-12-23T01:08:39.523Z,128.00
2022-12-23T01:09:39.522Z,180.90
2022-12-23T01:10:39.546Z,150.20
2022-12-23T01:11:39.475Z,214.80
2022-12-23T01:12:39.468Z,192.20
2022-12-23T01:13:39.472Z,314.00
2022-12-23T01:14:39.452Z,95.80
2022-12-23T01:15:39.491Z,148.50
2022-12-23T01:16:39.448Z,342.10
2022-12-23T01:17:39.429Z,223.80
2022-12-23T01:18:39.389Z,176.80
2022-12-23T01:19:39.403Z,146.10
2022-12-23T01:20:39.431Z,183.60
2022-12-23T01:21:39.381Z,146.50
2022-12-23T01:22:39.349Z,143.40
2022-12-23T01:23:39.362Z,120.70
2022-12-23T01:24:39.331Z,365.30
2022-12-23T01:25:39.433Z,154.20
2022-12-23T01:26:39.289Z,139.10
2022-12-23T01:27:39.282Z,124.40
2022-12-23T01:28:39.271Z,263.70
2022-12-23T01:29:39.271Z,288.40
2022-12-23T01:30:39.308Z,77.40
2022-12-23T01:31:39.294Z,176.80
2022-12-23T01:32:39.233Z,310.80
2022-12-23T01:33:39.259Z,223.00
2022-12-23T01:34:39.218Z,75.10
2022-12-23T01:35:39.251Z,146.30
2022-12-23T01:36:39.183Z,310.10
2022-12-23T01:37:39.185Z,225.80
2022-12-23T01:38:39.161Z,80.60
2022-12-23T01:39:39.198Z,253.30
2022-12-23T01:40:39.137Z,251.80
2022-12-23T01:41:39.196Z,80.80
2022-12-23T01:42:39.109Z,219.60
2022-12-23T01:43:39.115Z,234.90
2022-12-23T01:44:39.094Z,88.30
2022-12-23T01:45:39.139Z,195.00
2022-12-23T01:46:39.116Z,276.50
2022-12-23T01:47:39.059Z,157.70
2022-12-23T01:48:39.044Z,95.80
2022-12-23T01:49:39.031Z,295.30
2022-12-23T01:50:39.048Z,340.60
2022-12-23T01:51:39.061Z,189.00
2022-12-23T01:52:39.007Z,179.70
2022-12-23T01:53:38.993Z,337.00
2022-12-23T01:54:38.991Z,247.40
2022-12-23T01:55:38.984Z,106.70
2022-12-23T01:56:39.000Z,269.20
2022-12-23T01:57:38.942Z,230.90
2022-12-23T01:58:38.936Z,270.60
2022-12-23T01:59:38.931Z,97.30
2022-12-23T02:00:38.928Z,201.60
2022-12-23T02:01:39.061Z,346.90
2022-12-23T02:02:39.029Z,96.90
2022-12-23T02:03:38.942Z,326.50
2022-12-23T02:04:38.867Z,128.90
2022-12-23T02:05:38.859Z,109.30
2022-12-23T02:06:38.895Z,126.60
2022-12-23T02:07:38.827Z,195.90
2022-12-23T02:08:38.816Z,374.60
2022-12-23T02:09:38.822Z,105.50
2022-12-23T02:10:38.790Z,129.70
2022-12-23T02:11:38.831Z,329.00
2022-12-23T02:12:38.788Z,293.40
2022-12-23T02:13:38.772Z,85.40
2022-12-23T02:14:38.750Z,330.50
2022-12-23T02:15:38.749Z,133.40
2022-12-23T02:16:38.861Z,204.80
2022-12-23T02:17:38.715Z,299.30
2022-12-23T02:18:38.719Z,174.60
2022-12-23T02:19:38.729Z,102.50
2022-12-23T02:20:38.682Z,331.90
2022-12-23T02:21:38.715Z,150.60
2022-12-23T02:22:38.667Z,119.40
2022-12-23T02:23:38.668Z,297.10
2022-12-23T02:24:38.631Z,285.90
2022-12-23T02:25:38.619Z,175.50
2022-12-23T02:26:38.647Z,128.80
2022-12-23T02:27:38.598Z,280.40
2022-12-23T02:28:38.583Z,89.70
2022-12-23T02:29:38.578Z,325.70
2022-12-23T02:30:38.609Z,197.40
2022-12-23T02:31:38.597Z,149.30
2022-12-23T02:32:38.546Z,300.90
2022-12-23T02:33:38.535Z,106.40
2022-12-23T02:34:38.518Z,324.40
2022-12-23T02:35:38.613Z,212.50
2022-12-23T02:36:38.531Z,125.20
2022-12-23T02:37:38.491Z,269.80
2022-12-23T02:38:38.469Z,282.30
2022-12-23T02:39:38.465Z,234.00
2022-12-23T02:40:38.450Z,333.00
2022-12-23T02:41:38.481Z,225.80
2022-12-23T02:42:38.424Z,183.40
2022-12-23T02:43:38.416Z,200.90
2022-12-23T02:44:38.389Z,310.60
2022-12-23T02:45:38.398Z,184.70
2022-12-23T02:46:38.611Z,202.40
2022-12-23T02:47:38.366Z,281.20
2022-12-23T02:48:38.357Z,316.10
2022-12-23T02:49:38.352Z,160.70
2022-12-23T02:50:38.359Z,335.20
2022-12-23T02:51:38.372Z,156.70
2022-12-23T02:52:38.315Z,280.10
2022-12-23T02:53:38.303Z,298.50
2022-12-23T02:54:38.277Z,205.40
2022-12-23T02:55:38.280Z,294.70
2022-12-23T02:56:38.296Z,186.70
2022-12-23T02:57:38.254Z,315.20
2022-12-23T02:58:38.236Z,290.30
2022-12-23T02:59:38.234Z,263.10
2022-12-23T03:00:38.216Z,300.20
2022-12-23T03:01:38.373Z,266.00
2022-12-23T03:02:38.365Z,299.70
2022-12-23T03:03:38.267Z,333.10
2022-12-23T03:04:38.212Z,409.10
2022-12-23T03:05:38.164Z,269.40
2022-12-23T03:06:38.197Z,289.60
2022-12-23T03:07:38.127Z,429.10
2022-12-23T03:08:38.122Z,279.70
2022-12-23T03:09:38.113Z,655.50
2022-12-23T03:10:38.104Z,236.50
2022-12-23T03:11:38.137Z,730.10
2022-12-23T03:12:38.087Z,433.70
2022-12-23T03:13:38.069Z,277.40
2022-12-23T03:14:38.060Z,805.70
2022-12-23T03:15:38.149Z,253.20
2022-12-23T03:16:38.075Z,616.20
2022-12-23T03:17:38.035Z,285.90
2022-12-23T03:18:38.010Z,272.20
2022-12-23T03:19:38.001Z,656.60
2022-12-23T03:20:37.989Z,291.00
2022-12-23T03:21:38.028Z,383.20
2022-12-23T03:22:37.971Z,744.50
2022-12-23T03:23:37.954Z,284.80
2022-12-23T03:24:37.931Z,620.40
2022-12-23T03:25:37.936Z,245.50
2022-12-23T03:26:37.954Z,358.40
2022-12-23T03:27:37.907Z,418.10
2022-12-23T03:28:37.903Z,266.80
2022-12-23T03:29:37.883Z,339.10
2022-12-23T03:30:37.885Z,250.90
2022-12-23T03:31:38.034Z,312.30
2022-12-23T03:32:37.862Z,318.00
2022-12-23T03:33:37.833Z,309.80
2022-12-23T03:34:37.831Z,312.10
2022-12-23T03:35:37.820Z,213.40
2022-12-23T03:36:37.871Z,311.90
2022-12-23T03:37:37.798Z,130.00
2022-12-23T03:38:37.785Z,315.70
2022-12-23T03:39:37.790Z,129.90
2022-12-23T03:40:37.747Z,266.80
2022-12-23T03:41:37.755Z,216.40
2022-12-23T03:42:37.781Z,111.70
2022-12-23T03:43:37.720Z,114.50
2022-12-23T03:44:37.717Z,284.90
2022-12-23T03:45:39.730Z,85.60
2022-12-23T03:46:37.762Z,266.60
2022-12-23T03:47:37.720Z,86.20
2022-12-23T03:48:37.681Z,127.00
2022-12-23T03:49:37.689Z,304.40
2022-12-23T03:50:37.661Z,80.40
2022-12-23T03:51:37.629Z,287.80
2022-12-23T03:52:37.675Z,84.20
2022-12-23T03:53:37.620Z,200.30
2022-12-23T03:54:37.607Z,236.50
2022-12-23T03:55:37.606Z,91.70
2022-12-23T03:56:37.639Z,267.50
2022-12-23T03:57:37.618Z,93.60
2022-12-23T03:58:37.551Z,264.20
2022-12-23T03:59:37.551Z,81.70
2022-12-23T04:00:37.532Z,239.00
2022-12-23T04:01:37.700Z,190.30
2022-12-23T04:02:37.666Z,116.60
2022-12-23T04:03:37.544Z,242.50
2022-12-23T04:04:37.497Z,234.50
2022-12-23T04:05:37.490Z,225.70
2022-12-23T04:06:37.471Z,199.90
2022-12-23T04:07:37.505Z,172.00
2022-12-23T04:08:37.440Z,170.30
2022-12-23T04:09:37.436Z,225.20
2022-12-23T04:10:37.415Z,97.50
2022-12-23T04:11:37.416Z,277.30
2022-12-23T04:12:37.443Z,104.80
2022-12-23T04:13:37.395Z,205.70
2022-12-23T04:14:37.401Z,158.30
2022-12-23T04:15:37.388Z,227.10
2022-12-23T04:16:37.441Z,103.50
2022-12-23T04:17:37.405Z,109.60
2022-12-23T04:18:37.326Z,212.70
2022-12-23T04:19:37.325Z,196.50
2022-12-23T04:20:37.310Z,209.40
2022-12-23T04:21:37.311Z,113.10
2022-12-23T04:22:37.330Z,144.70
2022-12-23T04:23:37.302Z,245.10
2022-12-23T04:24:37.262Z,119.10
2022-12-23T04:25:37.255Z,232.60
2022-12-23T04:26:37.235Z,189.30
2022-12-23T04:27:37.283Z,109.90
2022-12-23T04:28:37.221Z,214.40
2022-12-23T04:29:37.239Z,125.80
2022-12-23T04:30:37.191Z,115.60
2022-12-23T04:31:37.220Z,206.80
2022-12-23T04:32:37.223Z,208.20
2022-12-23T04:33:37.166Z,202.40
2022-12-23T04:34:37.169Z,262.60
2022-12-23T04:35:37.144Z,143.70
2022-12-23T04:36:37.159Z,261.90
2022-12-23T04:37:37.163Z,118.90
2022-12-23T04:38:37.120Z,248.00
2022-12-23T04:39:37.097Z,92.10
2022-12-23T04:40:37.083Z,170.70
2022-12-23T04:41:37.086Z,215.70
2022-12-23T04:42:37.108Z,201.00
2022-12-23T04:43:37.050Z,144.60
2022-12-23T04:44:37.052Z,158.70
2022-12-23T04:45:37.030Z,225.10
2022-12-23T04:46:37.102Z,121.20
2022-12-23T04:47:37.052Z,221.80
2022-12-23T04:48:36.992Z,188.40
2022-12-23T04:49:36.986Z,131.30
2022-12-23T04:50:36.980Z,174.20
2022-12-23T04:51:36.954Z,99.30
2022-12-23T04:52:37.000Z,118.10
2022-12-23T04:53:36.934Z,253.00
2022-12-23T04:54:40.610Z,199.90
2022-12-23T04:55:37.897Z,97.30
2022-12-23T04:56:36.897Z,101.60
2022-12-23T04:57:36.897Z,268.40
2022-12-23T04:58:36.930Z,111.00
2022-12-23T04:59:36.864Z,116.20
2022-12-23T05:00:39.698Z,251.10
2022-12-23T05:01:36.945Z,92.30
2022-12-23T05:02:36.978Z,225.50
2022-12-23T05:03:36.909Z,135.60
2022-12-23T05:04:36.856Z,249.00
2022-12-23T05:05:36.788Z,147.30
2022-12-23T05:06:36.785Z,267.60
2022-12-23T05:07:36.767Z,101.20
2022-12-23T05:08:36.796Z,225.20
2022-12-23T05:09:36.750Z,150.50
2022-12-23T05:10:36.734Z,245.20
2022-12-23T05:11:41.820Z,131.90
2022-12-23T05:12:37.743Z,257.80
2022-12-23T05:13:36.744Z,124.90
2022-12-23T05:14:36.701Z,250.20
2022-12-23T05:15:36.675Z,127.90
2022-12-23T05:16:36.700Z,257.60
2022-12-23T05:17:36.650Z,118.60
2022-12-23T05:18:36.689Z,88.20
2022-12-23T05:19:36.644Z,257.40
2022-12-23T05:20:36.617Z,110.70
2022-12-23T05:21:36.638Z,243.80
2022-12-23T05:22:36.583Z,185.80
2022-12-23T05:23:36.613Z,182.70
2022-12-23T05:24:36.570Z,80.50
2022-12-23T05:25:36.547Z,212.30
2022-12-23T05:26:36.546Z,69.80
2022-12-23T05:27:36.531Z,249.20
2022-12-23T05:28:36.569Z,72.40
2022-12-23T05:29:36.516Z,237.10
2022-12-23T05:30:36.500Z,77.70
2022-12-23T05:31:36.534Z,210.90
2022-12-23T05:32:36.467Z,101.40
2022-12-23T05:33:36.583Z,139.80
2022-12-23T05:34:36.439Z,93.80
2022-12-23T05:35:36.440Z,255.70
2022-12-23T05:36:36.425Z,88.40
2022-12-23T05:37:36.419Z,249.40
2022-12-23T05:38:36.446Z,75.30
2022-12-23T05:39:36.384Z,152.40
2022-12-23T05:40:36.394Z,125.40
2022-12-23T05:41:36.364Z,71.20
2022-12-23T05:42:36.374Z,261.80
2022-12-23T05:43:36.399Z,137.70
2022-12-23T05:44:36.337Z,140.80
2022-12-23T05:45:36.352Z,87.50
2022-12-23T05:46:36.363Z,269.90
2022-12-23T05:47:36.299Z,67.30
2022-12-23T05:48:36.342Z,253.50
2022-12-23T05:49:36.274Z,65.50
2022-12-23T05:50:36.286Z,238.60
2022-12-23T05:51:36.235Z,63.60
2022-12-23T05:52:36.236Z,207.80
2022-12-23T05:53:36.294Z,73.40
2022-12-23T05:54:36.216Z,243.50
2022-12-23T05:55:36.193Z,68.10
2022-12-23T05:56:36.206Z,253.80
2022-12-23T05:57:36.230Z,167.50
2022-12-23T05:58:36.214Z,83.50
2022-12-23T05:59:36.167Z,150.50
2022-12-23T06:00:36.154Z,167.70
2022-12-23T06:01:36.171Z,150.50
2022-12-23T06:02:36.445Z,202.00
2022-12-23T06:03:36.320Z,215.60
2022-12-23T06:04:36.092Z,74.90
2022-12-23T06:05:36.097Z,235.90
2022-12-23T06:06:36.077Z,72.60
2022-12-23T06:07:36.055Z,202.60
2022-12-23T06:08:36.129Z,154.10
2022-12-23T06:09:36.061Z,69.20
2022-12-23T06:10:36.045Z,227.20
2022-12-23T06:11:36.013Z,191.10
2022-12-23T06:12:36.005Z,141.30
2022-12-23T06:13:36.029Z,213.30
2022-12-23T06:14:35.988Z,71.10
2022-12-23T06:15:35.969Z,65.50
2022-12-23T06:16:36.044Z,213.60
2022-12-23T06:17:35.967Z,153.10
2022-12-23T06:18:35.967Z,263.00
2022-12-23T06:19:35.929Z,112.70
2022-12-23T06:20:35.920Z,252.40
2022-12-23T06:21:35.889Z,82.40
2022-12-23T06:22:35.890Z,192.90
2022-12-23T06:23:35.909Z,75.50
2022-12-23T06:24:35.864Z,236.90
2022-12-23T06:25:35.856Z,88.30
2022-12-23T06:26:35.846Z,224.90
2022-12-23T06:27:35.835Z,94.30
2022-12-23T06:28:35.879Z,66.50
2022-12-23T06:29:35.801Z,266.10
2022-12-23T06:30:35.801Z,82.20
2022-12-23T06:31:35.790Z,69.40
2022-12-23T06:32:38.609Z,254.80
2022-12-23T06:33:35.793Z,77.40
2022-12-23T06:34:35.747Z,274.70
2022-12-23T06:35:35.737Z,82.10
2022-12-23T06:36:35.724Z,227.00
2022-12-23T06:37:35.701Z,100.00
2022-12-23T06:38:35.745Z,173.80
2022-12-23T06:39:35.696Z,78.50
2022-12-23T06:40:35.692Z,246.90
2022-12-23T06:41:35.653Z,202.50
2022-12-23T06:42:35.649Z,85.50
2022-12-23T06:43:35.653Z,253.00
2022-12-23T06:44:35.680Z,79.80
2022-12-23T06:45:35.632Z,112.10
2022-12-23T06:46:35.598Z,77.90
2022-12-23T06:47:35.594Z,255.20
2022-12-23T06:48:35.583Z,186.40
2022-12-23T06:49:35.618Z,92.30
2022-12-23T06:50:35.558Z,261.60
2022-12-23T06:51:35.574Z,207.80
2022-12-23T06:52:35.552Z,71.00
2022-12-23T06:53:35.553Z,263.40
2022-12-23T06:54:35.574Z,77.80
2022-12-23T06:55:35.506Z,129.10
2022-12-23T06:56:35.486Z,100.00
2022-12-23T06:57:35.487Z,254.20
2022-12-23T06:58:35.470Z,146.00
2022-12-23T06:59:35.572Z,274.30
2022-12-23T07:00:35.452Z,127.90
2022-12-23T07:01:35.505Z,99.40
2022-12-23T07:02:35.565Z,271.70
2022-12-23T07:03:35.479Z,72.70
2022-12-23T07:04:35.436Z,217.30
2022-12-23T07:05:37.556Z,240.10
2022-12-23T07:06:35.355Z,112.80
2022-12-23T07:07:35.354Z,99.10
2022-12-23T07:08:35.362Z,157.70
2022-12-23T07:09:35.411Z,294.90
2022-12-23T07:10:35.327Z,95.70
2022-12-23T07:11:35.323Z,118.10
2022-12-23T07:12:35.323Z,281.80
2022-12-23T07:13:35.302Z,85.20
2022-12-23T07:14:35.384Z,151.80
2022-12-23T07:15:35.285Z,135.90
2022-12-23T07:16:35.316Z,134.50
2022-12-23T07:17:35.233Z,119.10
2022-12-23T07:18:35.220Z,151.40
2022-12-23T07:19:35.256Z,133.30
2022-12-23T07:20:35.199Z,154.30
2022-12-23T07:21:35.200Z,234.10
2022-12-23T07:22:35.282Z,100.70
2022-12-23T07:23:35.189Z,170.10
2022-12-23T07:24:35.233Z,117.10
2022-12-23T07:25:35.175Z,284.10
2022-12-23T07:26:35.147Z,188.20
2022-12-23T07:27:35.141Z,180.60
2022-12-23T07:28:35.122Z,104.20
2022-12-23T07:29:35.149Z,265.20
2022-12-23T07:30:35.123Z,152.50
2022-12-23T07:31:39.320Z,219.60
2022-12-23T07:32:36.076Z,166.70
2022-12-23T07:33:35.046Z,143.20
2022-12-23T07:34:35.092Z,230.10
2022-12-23T07:35:35.043Z,162.80
2022-12-23T07:36:35.053Z,204.30
2022-12-23T07:37:35.014Z,284.10
2022-12-23T07:38:35.016Z,274.80
2022-12-23T07:39:35.043Z,172.10
2022-12-23T07:40:35.019Z,274.50
2022-12-23T07:41:34.989Z,297.00
2022-12-23T07:42:50.380Z,177.10
2022-12-23T07:43:35.975Z,254.20
2022-12-23T07:44:35.004Z,172.90
2022-12-23T07:45:34.965Z,310.80
2022-12-23T07:46:34.961Z,293.20
2022-12-23T07:47:34.897Z,236.00
2022-12-23T07:48:34.898Z,436.70
2022-12-23T07:49:34.916Z,205.00
2022-12-23T07:50:34.889Z,226.60
2022-12-23T07:51:34.871Z,284.40
2022-12-23T07:52:34.852Z,188.00
2022-12-23T07:53:34.843Z,230.50
2022-12-23T07:54:34.882Z,253.20
2022-12-23T07:55:34.816Z,201.20
2022-12-23T07:56:34.810Z,347.50
2022-12-23T07:57:34.830Z,191.70
2022-12-23T07:58:34.781Z,359.00
2022-12-23T07:59:34.819Z,434.30
2022-12-23T08:00:34.761Z,324.50
2022-12-23T08:01:34.870Z,393.40
2022-12-23T08:02:34.942Z,234.60
2022-12-23T08:03:34.825Z,763.90
2022-12-23T08:04:35.456Z,648.70
2022-12-23T08:05:34.707Z,664.50
2022-12-23T08:06:34.693Z,1009.10
2022-12-23T08:07:34.676Z,434.00
2022-12-23T08:08:34.682Z,1999.90
2022-12-23T08:09:34.688Z,308.00
2022-12-23T08:10:34.644Z,1999.90
2022-12-23T08:11:34.635Z,172.30
2022-12-23T08:12:34.598Z,1999.90
2022-12-23T08:13:34.595Z,1999.90
2022-12-23T08:14:34.626Z,1999.90
2022-12-23T08:15:34.586Z,382.50
2022-12-23T08:16:41.261Z,1999.90
2022-12-23T08:17:35.557Z,250.00
2022-12-23T08:18:34.536Z,1999.90
2022-12-23T08:19:34.604Z,1999.90
2022-12-23T08:20:34.531Z,1999.90
2022-12-23T08:21:34.547Z,350.20
2022-12-23T08:22:34.503Z,1999.90
2022-12-23T08:23:34.526Z,272.60
2022-12-23T08:24:34.542Z,1999.90
2022-12-23T08:25:34.482Z,853.10
2022-12-23T08:26:34.464Z,1999.90
2022-12-23T08:27:34.439Z,1789.60
2022-12-23T08:28:34.448Z,280.40
2022-12-23T08:29:36.586Z,629.30
2022-12-23T08:30:34.481Z,1999.90
2022-12-23T08:31:34.492Z,208.20
2022-12-23T08:32:34.424Z,1999.90
2022-12-23T08:33:34.380Z,652.80
2022-12-23T08:34:34.436Z,1572.00
2022-12-23T08:35:34.339Z,636.30
2022-12-23T08:36:34.344Z,1999.90
2022-12-23T08:37:34.335Z,1369.40
2022-12-23T08:38:34.334Z,1529.40
2022-12-23T08:39:34.375Z,1357.80
2022-12-23T08:40:34.301Z,1297.20
2022-12-23T08:41:34.306Z,1999.90
2022-12-23T08:42:34.257Z,250.20
2022-12-23T08:43:36.089Z,1999.90
2022-12-23T08:44:34.303Z,247.50
2022-12-23T08:45:34.245Z,1999.90
2022-12-23T08:46:34.291Z,321.60
2022-12-23T08:47:34.231Z,1999.90
2022-12-23T08:48:34.207Z,454.40
2022-12-23T08:49:34.235Z,1999.90
2022-12-23T08:50:34.204Z,512.40
2022-12-23T08:51:34.182Z,229.00
2022-12-23T08:52:34.162Z,1999.90
2022-12-23T08:53:34.165Z,575.00
2022-12-23T08:54:34.169Z,1999.90
2022-12-23T08:55:34.133Z,358.20
2022-12-23T08:56:34.122Z,1999.90
2022-12-23T08:57:34.092Z,1999.90
2022-12-23T08:58:34.102Z,328.60
2022-12-23T08:59:34.143Z,1999.90
2022-12-23T09:00:34.063Z,278.30
2022-12-23T09:01:34.215Z,1999.90
2022-12-23T09:02:34.380Z,166.70
2022-12-23T09:03:34.092Z,1999.90
2022-12-23T09:04:34.099Z,218.70
2022-12-23T09:05:34.022Z,1999.90
2022-12-23T09:06:34.045Z,284.00
2022-12-23T09:07:34.026Z,1999.90
2022-12-23T09:08:33.995Z,279.50
2022-12-23T09:09:34.017Z,1999.90
2022-12-23T09:10:33.955Z,319.50
2022-12-23T09:11:33.952Z,1999.90
2022-12-23T09:12:33.934Z,74.10
2022-12-23T09:13:35.834Z,1999.90
2022-12-23T09:14:33.892Z,1999.90
2022-12-23T09:15:33.984Z,275.60
2022-12-23T09:16:33.959Z,1999.90
2022-12-23T09:17:33.906Z,86.20
2022-12-23T09:18:33.843Z,1999.90
2022-12-23T09:19:33.877Z,254.30
2022-12-23T09:20:34.034Z,1999.90
2022-12-23T09:21:33.865Z,283.20
2022-12-23T09:22:33.816Z,1999.90
2022-12-23T09:23:33.832Z,74.30
2022-12-23T09:24:33.789Z,1999.90
2022-12-23T09:25:33.845Z,1999.90
2022-12-23T09:26:33.768Z,259.50
2022-12-23T09:27:33.770Z,1999.90
2022-12-23T09:28:33.757Z,274.80
2022-12-23T09:29:33.732Z,1999.90
2022-12-23T09:30:33.782Z,245.50
2022-12-23T09:31:37.426Z,1999.90
2022-12-23T09:32:33.699Z,304.60
2022-12-23T09:33:33.814Z,1999.90
2022-12-23T09:34:33.678Z,1999.90
2022-12-23T09:35:33.708Z,118.30
2022-12-23T09:36:33.676Z,1999.90
2022-12-23T09:37:33.637Z,651.90
2022-12-23T09:38:33.627Z,1999.90
2022-12-23T09:39:33.633Z,261.20
2022-12-23T09:40:33.667Z,1482.60
2022-12-23T09:41:33.609Z,250.10
2022-12-23T09:42:33.565Z,1678.40
2022-12-23T09:43:33.584Z,266.40
2022-12-23T09:44:33.551Z,1999.90
2022-12-23T09:45:40.164Z,1999.90
2022-12-23T09:46:34.731Z,255.70
2022-12-23T09:47:33.548Z,1999.90
2022-12-23T09:48:33.503Z,292.10
2022-12-23T09:49:33.507Z,1999.90
2022-12-23T09:50:33.543Z,1999.90
2022-12-23T09:51:33.499Z,1999.90
2022-12-23T09:52:33.488Z,1999.90
2022-12-23T09:53:33.471Z,1999.90
2022-12-23T09:54:33.450Z,1999.90
2022-12-23T09:55:33.476Z,260.00
2022-12-23T09:56:33.409Z,1999.90
2022-12-23T09:57:33.421Z,170.80
2022-12-23T09:58:33.389Z,1999.90
2022-12-23T09:59:33.396Z,154.30
2022-12-23T10:00:33.424Z,1999.90
2022-12-23T10:01:33.474Z,1999.90
2022-12-23T10:02:33.606Z,383.20
2022-12-23T10:03:33.673Z,1999.90
2022-12-23T10:04:33.343Z,1999.90
2022-12-23T10:05:33.352Z,1999.90
2022-12-23T10:06:33.293Z,1999.90
2022-12-23T10:07:33.320Z,394.50
2022-12-23T10:08:33.267Z,1999.90
2022-12-23T10:09:33.286Z,1999.90
2022-12-23T10:10:33.325Z,1999.90
2022-12-23T10:11:33.283Z,1999.90
2022-12-23T10:12:39.434Z,1999.90
2022-12-23T10:13:34.220Z,1999.90
2022-12-23T10:14:33.198Z,1999.90
2022-12-23T10:15:33.255Z,1999.90
2022-12-23T10:16:33.231Z,1999.90
2022-12-23T10:17:33.184Z,1999.90
2022-12-23T10:18:33.189Z,1999.90
2022-12-23T10:19:33.158Z,1999.90
2022-12-23T10:20:33.207Z,1999.90
2022-12-23T10:21:33.144Z,1999.90
2022-12-23T10:22:33.125Z,1999.90
2022-12-23T10:23:33.134Z,1999.90
2022-12-23T10:24:33.109Z,1999.90
2022-12-23T10:25:33.139Z,1999.90
2022-12-23T10:26:33.064Z,1999.90
2022-12-23T10:27:33.087Z,1999.90
2022-12-23T10:28:33.070Z,1999.90
2022-12-23T10:29:33.033Z,1999.90
2022-12-23T10:31:41.613Z,1999.90
2022-12-23T10:32:34.048Z,1999.90
2022-12-23T10:33:32.991Z,1999.90
2022-12-23T10:34:38.269Z,1999.90
2022-12-23T10:35:34.043Z,1999.90
2022-12-23T10:36:32.972Z,1999.90
2022-12-23T10:37:32.955Z,1999.90
2022-12-23T10:38:32.948Z,1999.90
2022-12-23T10:39:32.955Z,1999.90
2022-12-23T10:40:33.000Z,1999.90
2022-12-23T10:41:32.935Z,1999.90
2022-12-23T10:42:32.915Z,1999.90
2022-12-23T10:43:32.877Z,1999.90
2022-12-23T10:44:32.852Z,1999.90
2022-12-23T10:45:32.951Z,1999.90
2022-12-23T10:46:32.946Z,1999.90
2022-12-23T10:47:32.836Z,1999.90
2022-12-23T10:48:33.068Z,1999.90
2022-12-23T10:49:32.824Z,1999.90
2022-12-23T10:50:32.849Z,1999.90
2022-12-23T10:51:32.804Z,1999.90
2022-12-23T10:52:32.774Z,1999.90
2022-12-23T10:53:32.815Z,1999.90
2022-12-23T10:54:32.764Z,1999.90
2022-12-23T10:55:34.055Z,1999.90
2022-12-23T10:56:32.723Z,1999.90
2022-12-23T10:57:32.716Z,1999.90
2022-12-23T10:58:32.728Z,1999.90
2022-12-23T10:59:32.712Z,1999.90
2022-12-23T11:00:32.778Z,1999.90
2022-12-23T11:01:32.826Z,1999.90
2022-12-23T11:02:32.825Z,1999.90
2022-12-23T11:03:32.904Z,1999.90
2022-12-23T11:04:32.647Z,1999.90
2022-12-23T11:05:32.636Z,1999.90
2022-12-23T11:06:37.135Z,1999.90
2022-12-23T11:07:49.141Z,1999.90
2022-12-23T11:08:33.609Z,1999.90
2022-12-23T11:09:32.601Z,1999.90
2022-12-23T11:10:32.561Z,1999.90
2022-12-23T11:11:32.617Z,1999.90
2022-12-23T11:12:36.024Z,1999.90
2022-12-23T11:13:33.533Z,1999.90
2022-12-23T11:14:32.538Z,1999.90
2022-12-23T11:15:32.533Z,1999.90
2022-12-23T11:16:32.634Z,1999.90
2022-12-23T11:17:32.477Z,1999.90
2022-12-23T11:18:35.161Z,1999.90
2022-12-23T11:19:33.472Z,1999.90
2022-12-23T11:20:32.477Z,1999.90
2022-12-23T11:21:32.497Z,1999.90
2022-12-23T11:22:32.424Z,1999.90
2022-12-23T11:23:32.442Z,1999.90
2022-12-23T11:24:33.650Z,1999.90
2022-12-23T11:25:32.396Z,1999.90
2022-12-23T11:26:32.416Z,1999.90
2022-12-23T11:27:32.414Z,1999.90
2022-12-23T11:28:32.381Z,1999.90
2022-12-23T11:29:32.351Z,1999.90
2022-12-23T11:30:32.338Z,1999.90
2022-12-23T11:31:32.426Z,1999.90
2022-12-23T11:32:32.326Z,1999.90
2022-12-23T11:33:32.326Z,1999.90
2022-12-23T11:34:32.289Z,1999.90
2022-12-23T11:35:32.319Z,1999.90
2022-12-23T11:36:32.319Z,1999.90
2022-12-23T11:37:32.265Z,1999.90
2022-12-23T11:38:32.254Z,1999.90
2022-12-23T11:39:32.243Z,1999.90
2022-12-23T11:40:32.248Z,1999.90
2022-12-23T11:41:32.271Z,1999.90
2022-12-23T11:42:32.211Z,1999.90
2022-12-23T11:43:32.201Z,1999.90
2022-12-23T11:44:32.189Z,1999.90
2022-12-23T11:45:32.245Z,1999.90
2022-12-23T11:46:32.264Z,1999.90
2022-12-23T11:47:32.201Z,1999.90
2022-12-23T11:48:32.133Z,1999.90
2022-12-23T11:49:32.149Z,1999.90
2022-12-23T11:50:32.113Z,1999.90
2022-12-23T11:51:32.155Z,1999.90
2022-12-23T11:52:32.078Z,1999.90
2022-12-23T11:53:32.079Z,1999.90
2022-12-23T11:54:32.045Z,1999.90
2022-12-23T11:55:32.064Z,1999.90
2022-12-23T11:56:32.271Z,1999.90
2022-12-23T11:57:32.044Z,1999.90
2022-12-23T11:58:32.067Z,1999.90
2022-12-23T11:59:32.040Z,1999.90
2022-12-23T12:00:32.006Z,1999.90
2022-12-23T12:01:32.042Z,1999.90
2022-12-23T12:02:31.999Z,1999.90
2022-12-23T12:03:32.061Z,1999.90
2022-12-23T12:04:31.953Z,1999.90
2022-12-23T12:05:31.939Z,1999.90
2022-12-23T12:06:31.994Z,1999.90
2022-12-23T12:07:31.929Z,1999.90
2022-12-23T12:08:31.912Z,1999.90
2022-12-23T12:09:31.903Z,1999.90
2022-12-23T12:10:31.913Z,1999.90
2022-12-23T12:11:31.916Z,1999.90
2022-12-23T12:12:31.893Z,1999.90
2022-12-23T12:13:31.878Z,1999.90
2022-12-23T12:14:31.835Z,1999.90
2022-12-23T12:15:31.848Z,1999.90
2022-12-23T12:16:31.925Z,1999.90
2022-12-23T12:17:31.824Z,1999.90
2022-12-23T12:18:31.805Z,1999.90
2022-12-23T12:19:31.767Z,1999.90
2022-12-23T12:20:31.756Z,1999.90
2022-12-23T12:21:31.808Z,1999.90
2022-12-23T12:22:31.750Z,1999.90
2022-12-23T12:23:31.748Z,1999.90
2022-12-23T12:24:31.728Z,1999.90